createdAt,value
2019-03-03T00:02:37.376Z,101942.31
2019-03-03T00:05:40.590Z,101938.38
2019-03-03T00:08:43.774Z,101934.49
2019-03-03T00:11:46.979Z,101936.12
2019-03-03T00:14:50.169Z,101933.38
2019-03-03T00:17:53.446Z,101932.47
2019-03-03T00:20:56.642Z,101933.06
2019-03-03T00:23:59.736Z,101938.27
2019-03-03T00:27:02.850Z,101937.59
2019-03-03T00:30:06.309Z,101941.80
2019-03-03T00:33:09.427Z,101944.02
2019-03-03T00:36:12.626Z,101940.11
2019-03-03T00:39:20.943Z,101936.86
2019-03-03T00:42:29.153Z,101940.93
2019-03-03T00:45:39.363Z,101947.87
2019-03-03T00:48:46.663Z,101957.38
2019-03-03T00:51:55.395Z,101957.16
2019-03-03T00:55:03.721Z,101941.38
2019-03-03T00:58:13.855Z,101935.98
2019-03-03T01:01:21.176Z,101941.37
2019-03-03T01:04:35.559Z,101931.75
2019-03-03T01:07:51.918Z,101939.11
2019-03-03T01:11:00.329Z,101946.35
2019-03-03T01:14:08.823Z,101947.26
2019-03-03T01:17:21.195Z,101947.49
2019-03-03T01:20:28.543Z,101948.51
2019-03-03T01:23:37.132Z,101941.45
2019-03-03T01:26:40.286Z,101940.35
2019-03-03T01:29:43.489Z,101938.59
2019-03-03T01:32:46.595Z,101935.47
2019-03-03T01:35:49.768Z,101934.17
2019-03-03T01:38:52.867Z,101930.72
2019-03-03T01:41:55.963Z,101927.98
2019-03-03T01:44:59.156Z,101915.91
2019-03-03T01:48:02.343Z,101912.18
2019-03-03T01:51:05.437Z,101917.03
2019-03-03T01:54:08.538Z,101915.59
2019-03-03T01:57:11.728Z,101912.64
2019-03-03T02:00:25.007Z,101907.24
2019-03-03T02:03:28.155Z,101907.15
2019-03-03T02:06:31.352Z,101905.74
2019-03-03T02:09:34.551Z,101900.86
2019-03-03T02:12:37.734Z,101899.31
2019-03-03T02:15:40.935Z,101893.37
2019-03-03T02:18:44.031Z,101889.00
2019-03-03T02:21:47.220Z,101888.33
2019-03-03T02:24:50.620Z,101875.91
2019-03-03T02:27:53.794Z,101881.47
2019-03-03T02:30:56.895Z,101873.90
2019-03-03T02:33:59.983Z,101865.28
2019-03-03T02:37:03.072Z,101869.45
2019-03-03T02:40:07.309Z,101867.29
2019-03-03T02:43:10.394Z,101868.80
2019-03-03T02:46:13.594Z,101868.03
2019-03-03T02:49:16.775Z,101856.42
2019-03-03T02:52:19.872Z,101853.50
2019-03-03T02:55:22.989Z,101850.96
2019-03-03T02:58:26.288Z,101850.23
2019-03-03T03:01:33.823Z,101847.31
2019-03-03T03:04:36.960Z,101852.22
2019-03-03T03:07:46.184Z,101847.11
2019-03-03T03:10:56.459Z,101842.07
2019-03-03T03:14:08.879Z,101848.64
2019-03-03T03:17:16.226Z,101838.38
2019-03-03T03:20:24.370Z,101835.33
2019-03-03T03:23:38.816Z,101833.40
2019-03-03T03:27:45.403Z,101826.48
2019-03-03T03:30:56.685Z,101824.80
2019-03-03T03:34:05.227Z,101821.63
2019-03-03T03:37:27.885Z,101822.81
2019-03-03T03:40:35.225Z,101819.06
2019-03-03T03:44:17.843Z,101814.48
2019-03-03T03:47:26.142Z,101815.68
2019-03-03T03:50:34.419Z,101806.86
2019-03-03T03:53:42.972Z,101804.45
2019-03-03T03:56:51.246Z,101819.62
2019-03-03T04:00:04.680Z,101815.61
2019-03-03T04:03:13.210Z,101808.94
2019-03-03T04:06:22.356Z,101808.85
2019-03-03T04:09:37.592Z,101807.38
2019-03-03T04:12:48.887Z,101813.30
2019-03-03T04:15:56.255Z,101818.26
2019-03-03T04:19:05.536Z,101821.38
2019-03-03T04:23:12.985Z,101816.47
2019-03-03T04:26:30.299Z,101817.74
2019-03-03T04:29:37.686Z,101818.93
2019-03-03T04:32:47.787Z,101827.13
2019-03-03T04:35:56.431Z,101826.05
2019-03-03T04:39:05.065Z,101819.87
2019-03-03T04:42:13.665Z,101820.33
2019-03-03T04:45:24.023Z,101823.14
2019-03-03T04:48:32.365Z,101826.40
2019-03-03T04:51:44.806Z,101826.16
2019-03-03T04:54:54.063Z,101826.35
2019-03-03T04:58:04.342Z,101818.46
2019-03-03T05:03:16.214Z,101816.16
2019-03-03T05:06:23.494Z,101805.73
2019-03-03T05:09:31.867Z,101802.82
2019-03-03T05:12:40.561Z,101793.04
2019-03-03T05:15:51.880Z,101783.91
2019-03-03T05:18:59.939Z,101797.20
2019-03-03T05:22:03.058Z,101799.12
2019-03-03T05:25:06.367Z,101804.54
2019-03-03T05:28:09.443Z,101810.59
2019-03-03T05:31:12.634Z,101814.41
2019-03-03T05:34:15.716Z,101805.82
2019-03-03T05:37:18.824Z,101813.88
2019-03-03T05:40:22.012Z,101810.00
2019-03-03T05:43:25.104Z,101807.61
2019-03-03T05:46:28.235Z,101800.31
2019-03-03T05:49:31.392Z,101796.10
2019-03-03T05:52:34.501Z,101793.73
2019-03-03T05:55:37.679Z,101795.03
2019-03-03T05:58:40.767Z,101790.83
2019-03-03T06:01:43.962Z,101789.34
2019-03-03T06:04:47.055Z,101780.48
2019-03-03T06:07:50.147Z,101781.90
2019-03-03T06:10:53.278Z,101782.09
2019-03-03T06:13:56.336Z,101773.38
2019-03-03T06:16:59.423Z,101768.26
2019-03-03T06:20:03.090Z,101764.59
2019-03-03T06:23:06.227Z,101762.31
2019-03-03T06:26:09.419Z,101761.06
2019-03-03T06:29:12.611Z,101751.62
2019-03-03T06:32:15.700Z,101747.86
2019-03-03T06:35:18.803Z,101750.80
2019-03-03T06:38:21.990Z,101741.53
2019-03-03T06:41:25.089Z,101738.32
2019-03-03T06:44:28.184Z,101738.96
2019-03-03T06:47:31.371Z,101737.18
2019-03-03T06:50:34.571Z,101734.51
2019-03-03T06:53:38.031Z,101728.99
2019-03-03T06:56:41.175Z,101735.79
2019-03-03T06:59:44.375Z,101735.12
2019-03-03T07:02:47.559Z,101739.52
2019-03-03T07:05:50.640Z,101740.19
2019-03-03T07:08:53.821Z,101741.95
2019-03-03T07:11:56.931Z,101740.73
2019-03-03T07:15:00.182Z,101734.79
2019-03-03T07:18:03.329Z,101750.54
2019-03-03T07:21:06.496Z,101754.33
2019-03-03T07:24:09.712Z,101764.79
2019-03-03T07:27:12.892Z,101758.12
2019-03-03T07:30:16.108Z,101749.05
2019-03-03T07:33:29.198Z,101747.36
2019-03-03T07:36:32.314Z,101755.96
2019-03-03T07:39:35.503Z,101754.02
2019-03-03T07:42:38.600Z,101761.94
2019-03-03T07:45:41.790Z,101764.16
2019-03-03T07:48:45.123Z,101763.24
2019-03-03T07:51:48.390Z,101763.80
2019-03-03T07:54:51.923Z,101759.88
2019-03-03T07:57:55.024Z,101754.14
2019-03-03T08:00:58.167Z,101762.94
2019-03-03T08:04:01.281Z,101758.45
2019-03-03T08:07:04.471Z,101757.50
2019-03-03T08:10:08.082Z,101755.21
2019-03-03T08:13:11.267Z,101754.40
2019-03-03T08:16:14.482Z,101747.89
2019-03-03T08:19:17.652Z,101741.51
2019-03-03T08:22:20.744Z,101743.60
2019-03-03T08:25:23.936Z,101748.62
2019-03-03T08:28:27.139Z,101741.96
2019-03-03T08:31:30.323Z,101743.19
2019-03-03T08:34:33.527Z,101744.19
2019-03-03T08:37:36.724Z,101741.62
2019-03-03T08:40:39.915Z,101740.22
2019-03-03T08:43:47.781Z,101740.71
2019-03-03T08:46:56.351Z,101740.56
2019-03-03T08:50:05.724Z,101734.85
2019-03-03T08:53:24.177Z,101738.41
2019-03-03T08:56:35.519Z,101747.50
2019-03-03T08:59:46.779Z,101756.05
2019-03-03T09:03:25.655Z,101760.33
2019-03-03T09:06:35.987Z,101747.94
2019-03-03T09:09:54.475Z,101740.01
2019-03-03T09:13:03.676Z,101748.16
2019-03-03T09:16:11.823Z,101745.82
2019-03-03T09:19:20.328Z,101758.09
2019-03-03T09:22:27.779Z,101759.80
2019-03-03T09:25:54.201Z,101764.50
2019-03-03T09:29:01.597Z,101757.22
2019-03-03T09:32:29.175Z,101766.21
2019-03-03T09:35:51.612Z,101751.37
2019-03-03T09:39:00.061Z,101761.59
2019-03-03T09:42:08.711Z,101754.87
2019-03-03T09:45:17.027Z,101756.88
2019-03-03T09:49:24.380Z,101757.72
2019-03-03T09:52:38.722Z,101754.23
2019-03-03T09:55:50.975Z,101747.51
2019-03-03T09:58:59.523Z,101744.64
2019-03-03T10:02:25.023Z,101744.64
2019-03-03T10:05:49.488Z,101746.68
2019-03-03T10:08:56.869Z,101747.88
2019-03-03T10:12:06.167Z,101753.01
2019-03-03T10:15:16.687Z,101751.85
2019-03-03T10:18:24.957Z,101743.89
2019-03-03T10:21:50.403Z,101738.72
2019-03-03T10:27:01.599Z,101738.39
2019-03-03T10:30:12.015Z,101731.50
2019-03-03T10:33:20.690Z,101725.78
2019-03-03T10:36:33.189Z,101728.17
2019-03-03T10:39:42.498Z,101726.50
2019-03-03T10:42:49.828Z,101726.37
2019-03-03T10:45:58.130Z,101717.33
2019-03-03T10:51:14.667Z,101715.56
2019-03-03T10:55:27.779Z,101707.84
2019-03-03T10:58:35.924Z,101700.74
2019-03-03T11:01:58.472Z,101700.22
2019-03-03T11:05:08.925Z,101701.82
2019-03-03T11:08:49.572Z,101699.51
2019-03-03T11:11:57.704Z,101692.66
2019-03-03T11:15:06.274Z,101689.08
2019-03-03T11:18:14.574Z,101690.73
2019-03-03T11:21:23.119Z,101695.84
2019-03-03T11:24:46.755Z,101686.55
2019-03-03T11:27:54.098Z,101688.70
2019-03-03T11:31:09.346Z,101696.84
2019-03-03T11:35:16.436Z,101685.37
2019-03-03T11:38:29.722Z,101680.09
2019-03-03T11:41:43.103Z,101679.51
2019-03-03T11:44:52.336Z,101685.67
2019-03-03T11:48:04.243Z,101671.89
2019-03-03T11:51:08.390Z,101667.13
2019-03-03T11:54:19.732Z,101669.49
2019-03-03T11:58:29.362Z,101663.19
2019-03-03T12:02:09.071Z,101656.41
2019-03-03T12:05:17.810Z,101645.35
2019-03-03T12:08:29.116Z,101649.45
2019-03-03T12:11:56.450Z,101648.62
2019-03-03T12:15:21.767Z,101634.95
2019-03-03T12:18:29.916Z,101617.20
2019-03-03T12:21:39.070Z,101612.93
2019-03-03T12:24:49.403Z,101611.64
2019-03-03T12:27:59.699Z,101605.82
2019-03-03T12:31:11.073Z,101600.87
2019-03-03T12:34:24.498Z,101607.21
2019-03-03T12:37:33.080Z,101599.53
2019-03-03T12:42:48.382Z,101590.50
2019-03-03T12:46:28.034Z,101590.92
2019-03-03T12:49:36.271Z,101581.83
2019-03-03T12:53:15.075Z,101584.04
2019-03-03T12:56:24.457Z,101586.05
2019-03-03T12:59:31.791Z,101582.55
2019-03-03T13:02:39.080Z,101575.32
2019-03-03T13:05:46.375Z,101572.43
2019-03-03T13:09:30.104Z,101564.19
2019-03-03T13:12:38.420Z,101562.08
2019-03-03T13:15:45.734Z,101551.23
2019-03-03T13:18:53.110Z,101540.74
2019-03-03T13:22:04.477Z,101538.06
2019-03-03T13:25:14.787Z,101531.75
2019-03-03T13:28:26.071Z,101529.74
2019-03-03T13:31:36.365Z,101522.00
2019-03-03T13:34:49.825Z,101508.62
2019-03-03T13:37:57.932Z,101489.85
2019-03-03T13:41:07.041Z,101485.28
2019-03-03T13:44:10.244Z,101476.95
2019-03-03T13:47:13.418Z,101473.85
2019-03-03T13:50:16.711Z,101474.52
2019-03-03T13:53:19.896Z,101473.13
2019-03-03T13:56:23.118Z,101477.32
2019-03-03T13:59:26.324Z,101462.86
2019-03-03T14:02:29.472Z,101465.29
2019-03-03T14:05:32.668Z,101460.42
2019-03-03T14:08:35.860Z,101462.94
2019-03-03T14:11:38.960Z,101454.28
2019-03-03T14:14:42.159Z,101447.36
2019-03-03T14:17:45.516Z,101454.92
2019-03-03T14:20:48.657Z,101453.57
2019-03-03T14:23:52.111Z,101449.82
2019-03-03T14:26:55.413Z,101438.46
2019-03-03T14:29:58.596Z,101437.23
2019-03-03T14:33:01.746Z,101434.57
2019-03-03T14:36:05.079Z,101435.38
2019-03-03T14:39:08.727Z,101434.51
2019-03-03T14:42:11.956Z,101427.44
2019-03-03T14:45:16.262Z,101420.83
2019-03-03T14:48:20.196Z,101420.44
2019-03-03T14:51:23.596Z,101410.43
2019-03-03T14:54:26.857Z,101416.62
2019-03-03T14:57:30.071Z,101418.10
2019-03-03T15:00:33.307Z,101407.46
2019-03-03T15:03:36.464Z,101395.21
2019-03-03T15:06:39.660Z,101392.49
2019-03-03T15:09:42.940Z,101389.53
2019-03-03T15:12:46.215Z,101391.26
2019-03-03T15:15:49.362Z,101395.56
2019-03-03T15:18:52.675Z,101386.11
2019-03-03T15:21:56.678Z,101382.09
2019-03-03T15:24:59.859Z,101374.79
2019-03-03T15:28:03.185Z,101369.07
2019-03-03T15:31:06.370Z,101367.74
2019-03-03T15:34:09.925Z,101358.23
2019-03-03T15:37:16.827Z,101354.83
2019-03-03T15:40:20.324Z,101343.12
2019-03-03T15:43:23.532Z,101347.77
2019-03-03T15:46:26.695Z,101345.41
2019-03-03T15:49:29.808Z,101334.17
2019-03-03T15:52:32.996Z,101336.89
2019-03-03T15:55:36.185Z,101324.23
2019-03-03T15:58:39.355Z,101321.75
2019-03-03T16:01:42.552Z,101328.47
2019-03-03T16:04:45.755Z,101327.00
2019-03-03T16:07:48.871Z,101314.63
2019-03-03T16:10:52.190Z,101306.79
2019-03-03T16:13:55.342Z,101301.54
2019-03-03T16:16:58.531Z,101292.98
2019-03-03T16:20:01.733Z,101280.81
2019-03-03T16:23:04.918Z,101285.45
2019-03-03T16:26:08.019Z,101283.23
2019-03-03T16:29:11.211Z,101277.65
2019-03-03T16:32:14.425Z,101269.88
2019-03-03T16:35:17.623Z,101261.05
2019-03-03T16:38:20.918Z,101264.09
2019-03-03T16:41:23.984Z,101267.64
2019-03-03T16:44:27.307Z,101269.21
2019-03-03T16:47:30.495Z,101267.29
2019-03-03T16:50:33.779Z,101253.89
2019-03-03T16:53:36.967Z,101255.06
2019-03-03T16:56:40.309Z,101259.60
2019-03-03T16:59:43.467Z,101245.18
2019-03-03T17:02:46.659Z,101249.59
2019-03-03T17:05:49.858Z,101258.95
2019-03-03T17:08:53.051Z,101256.31
2019-03-03T17:11:56.135Z,101261.52
2019-03-03T17:14:59.276Z,101264.27
2019-03-03T17:18:02.458Z,101256.63
2019-03-03T17:21:05.625Z,101265.46
2019-03-03T17:24:08.807Z,101270.69
2019-03-03T17:27:12.019Z,101272.59
2019-03-03T17:30:17.769Z,101267.90
2019-03-03T17:33:20.954Z,101261.91
2019-03-03T17:36:24.139Z,101262.92
2019-03-03T17:39:27.336Z,101263.68
2019-03-03T17:42:30.462Z,101256.75
2019-03-03T17:45:33.675Z,101247.61
2019-03-03T17:48:36.839Z,101243.82
2019-03-03T17:51:40.474Z,101241.06
2019-03-03T17:54:47.280Z,101237.00
2019-03-03T17:57:50.395Z,101218.80
2019-03-03T18:00:53.492Z,101226.42
2019-03-03T18:03:56.607Z,101212.67
2019-03-03T18:07:00.311Z,101213.81
2019-03-03T18:10:03.968Z,101210.54
2019-03-03T18:13:07.107Z,101200.68
2019-03-03T18:16:10.303Z,101198.16
2019-03-03T18:19:13.525Z,101179.05
2019-03-03T18:22:16.591Z,101180.50
2019-03-03T18:25:19.779Z,101185.43
2019-03-03T18:28:22.974Z,101177.94
2019-03-03T18:31:26.051Z,101167.74
2019-03-03T18:34:29.147Z,101170.26
2019-03-03T18:37:32.344Z,101169.95
2019-03-03T18:40:35.535Z,101178.06
2019-03-03T18:43:38.774Z,101170.29
2019-03-03T18:46:42.014Z,101164.97
2019-03-03T18:49:45.124Z,101161.59
2019-03-03T18:52:48.335Z,101161.19
2019-03-03T18:55:51.531Z,101158.43
2019-03-03T18:58:54.704Z,101154.02
2019-03-03T19:01:57.805Z,101143.90
2019-03-03T19:05:00.903Z,101138.70
2019-03-03T19:08:04.005Z,101136.42
2019-03-03T19:11:07.175Z,101131.69
2019-03-03T19:14:10.264Z,101126.34
2019-03-03T19:17:14.764Z,101135.09
2019-03-03T19:20:18.702Z,101130.33
2019-03-03T19:23:21.928Z,101123.20
2019-03-03T19:26:25.096Z,101118.78
2019-03-03T19:29:28.316Z,101104.73
2019-03-03T19:32:33.351Z,101095.68
2019-03-03T19:35:36.431Z,101088.47
2019-03-03T19:38:39.607Z,101090.83
2019-03-03T19:41:42.745Z,101096.41
2019-03-03T19:44:45.907Z,101099.11
2019-03-03T19:47:49.187Z,101087.88
2019-03-03T19:50:52.288Z,101089.29
2019-03-03T19:53:55.492Z,101078.89
2019-03-03T19:56:58.718Z,101074.21
2019-03-03T20:00:01.895Z,101073.19
2019-03-03T20:03:05.181Z,101074.92
2019-03-03T20:06:08.264Z,101063.77
2019-03-03T20:09:16.836Z,101060.77
2019-03-03T20:12:19.972Z,101057.75
2019-03-03T20:15:23.063Z,101050.14
2019-03-03T20:18:26.305Z,101045.97
2019-03-03T20:21:29.479Z,101033.71
2019-03-03T20:24:32.671Z,101035.04
2019-03-03T20:27:35.791Z,101033.82
2019-03-03T20:30:38.961Z,101036.56
2019-03-03T20:33:42.047Z,101019.96
2019-03-03T20:36:45.239Z,101036.61
2019-03-03T20:39:48.427Z,101032.59
2019-03-03T20:42:51.759Z,101027.85
2019-03-03T20:45:55.023Z,101021.23
2019-03-03T20:48:58.214Z,101016.12
2019-03-03T20:52:01.308Z,101023.13
2019-03-03T20:55:05.243Z,101027.54
2019-03-03T20:58:08.431Z,101033.17
2019-03-03T21:01:11.622Z,101010.50
2019-03-03T21:04:14.844Z,101010.27
2019-03-03T21:07:17.989Z,100993.61
2019-03-03T21:10:21.814Z,100987.58
2019-03-03T21:13:25.035Z,100972.12
2019-03-03T21:16:28.211Z,100984.69
2019-03-03T21:19:31.378Z,100982.97
2019-03-03T21:22:34.471Z,100974.12
2019-03-03T21:25:37.587Z,100958.11
2019-03-03T21:28:40.759Z,100975.80
2019-03-03T21:31:44.059Z,100968.12
2019-03-03T21:34:47.154Z,100961.45
2019-03-03T21:37:50.455Z,100953.94
2019-03-03T21:40:53.712Z,100950.25
2019-03-03T21:43:56.842Z,100955.11
2019-03-03T21:47:00.038Z,100945.12
2019-03-03T21:50:03.244Z,100929.86
2019-03-03T21:53:06.452Z,100918.86
2019-03-03T21:56:10.448Z,100902.52
2019-03-03T21:59:13.769Z,100901.18
2019-03-03T22:02:17.030Z,100892.89
2019-03-03T22:05:20.243Z,100879.89
2019-03-03T22:08:23.535Z,100869.00
2019-03-03T22:11:26.725Z,100862.13
2019-03-03T22:14:29.915Z,100853.69
2019-03-03T22:17:33.127Z,100855.94
2019-03-03T22:20:36.296Z,100872.02
2019-03-03T22:23:39.390Z,100868.16
2019-03-03T22:26:42.475Z,100865.50
2019-03-03T22:29:45.777Z,100857.69
2019-03-03T22:32:48.991Z,100848.52
2019-03-03T22:35:52.179Z,100839.46
2019-03-03T22:38:55.369Z,100828.11
2019-03-03T22:41:58.679Z,100825.75
2019-03-03T22:45:01.887Z,100826.15
2019-03-03T22:48:05.319Z,100811.33
2019-03-03T22:51:08.463Z,100796.14
2019-03-03T22:54:11.567Z,100797.37
2019-03-03T22:57:14.727Z,100789.09
2019-03-03T23:00:31.299Z,100783.94
2019-03-03T23:03:40.240Z,100779.74
2019-03-03T23:06:48.144Z,100771.41
2019-03-03T23:12:06.020Z,100766.93
2019-03-03T23:16:49.384Z,100770.59
2019-03-03T23:20:07.324Z,100770.52
2019-03-03T23:23:21.634Z,100775.18
2019-03-03T23:26:24.754Z,100771.80
2019-03-03T23:29:27.860Z,100774.06
2019-03-03T23:32:31.055Z,100778.47
2019-03-03T23:35:34.239Z,100771.08
2019-03-03T23:38:38.263Z,100771.79
2019-03-03T23:41:41.451Z,100769.86
2019-03-03T23:44:44.929Z,100760.86
2019-03-03T23:47:48.171Z,100753.26
2019-03-03T23:50:51.363Z,100746.98
2019-03-03T23:53:54.547Z,100739.74
2019-03-03T23:56:57.734Z,100738.86
